sensor_id;sensor_type;location;lat;lon;timestamp;P1;durP1;ratioP1;P2;durP2;ratioP2
32533;SDS011;18973;48.580;8.912;2022-11-25T00:00:10;4.07;;;3.75;;
32533;SDS011;18973;48.580;8.912;2022-11-25T00:02:41;4.97;;;4.55;;
32533;SDS011;18973;48.580;8.912;2022-11-25T00:05:09;4.32;;;3.72;;
32533;SDS011;18973;48.580;8.912;2022-11-25T00:07:35;2.97;;;2.78;;
32533;SDS011;18973;48.580;8.912;2022-11-25T00:10:01;4.28;;;3.13;;
32533;SDS011;18973;48.580;8.912;2022-11-25T00:12:28;5.20;;;3.75;;
32533;SDS011;18973;48.580;8.912;2022-11-25T00:14:53;3.88;;;3.58;;
32533;SDS011;18973;48.580;8.912;2022-11-25T00:17:19;5.32;;;4.45;;
32533;SDS011;18973;48.580;8.912;2022-11-25T00:19:44;4.22;;;3.70;;
32533;SDS011;18973;48.580;8.912;2022-11-25T00:22:12;5.80;;;4.40;;
32533;SDS011;18973;48.580;8.912;2022-11-25T00:24:39;4.30;;;3.90;;
32533;SDS011;18973;48.580;8.912;2022-11-25T00:27:04;3.83;;;3.45;;
32533;SDS011;18973;48.580;8.912;2022-11-25T00:29:30;6.82;;;4.10;;
32533;SDS011;18973;48.580;8.912;2022-11-25T00:31:56;4.90;;;4.22;;
32533;SDS011;18973;48.580;8.912;2022-11-25T00:34:22;5.15;;;3.70;;
32533;SDS011;18973;48.580;8.912;2022-11-25T00:36:47;10.93;;;6.53;;
32533;SDS011;18973;48.580;8.912;2022-11-25T00:39:16;5.05;;;4.55;;
32533;SDS011;18973;48.580;8.912;2022-11-25T00:41:44;7.10;;;5.28;;
32533;SDS011;18973;48.580;8.912;2022-11-25T00:44:29;4.55;;;4.18;;
32533;SDS011;18973;48.580;8.912;2022-11-25T00:47:02;7.40;;;5.00;;
32533;SDS011;18973;48.580;8.912;2022-11-25T00:49:34;8.13;;;4.22;;
32533;SDS011;18973;48.580;8.912;2022-11-25T00:52:01;7.78;;;4.72;;
32533;SDS011;18973;48.580;8.912;2022-11-25T00:54:27;3.80;;;3.50;;
32533;SDS011;18973;48.580;8.912;2022-11-25T00:56:53;3.25;;;3.05;;
32533;SDS011;18973;48.580;8.912;2022-11-25T00:59:19;3.42;;;3.20;;
32533;SDS011;18973;48.580;8.912;2022-11-25T01:01:45;4.10;;;3.53;;
32533;SDS011;18973;48.580;8.912;2022-11-25T01:04:11;3.25;;;3.00;;
32533;SDS011;18973;48.580;8.912;2022-11-25T01:06:37;4.78;;;3.15;;
32533;SDS011;18973;48.580;8.912;2022-11-25T01:09:03;3.45;;;3.15;;
32533;SDS011;18973;48.580;8.912;2022-11-25T01:11:30;3.92;;;3.58;;
32533;SDS011;18973;48.580;8.912;2022-11-25T01:13:56;3.80;;;3.50;;
32533;SDS011;18973;48.580;8.912;2022-11-25T01:16:23;5.13;;;4.10;;
32533;SDS011;18973;48.580;8.912;2022-11-25T01:18:49;3.22;;;3.03;;
32533;SDS011;18973;48.580;8.912;2022-11-25T01:21:17;5.07;;;4.57;;
32533;SDS011;18973;48.580;8.912;2022-11-25T01:23:47;7.15;;;4.00;;
32533;SDS011;18973;48.580;8.912;2022-11-25T01:26:17;4.45;;;4.03;;
32533;SDS011;18973;48.580;8.912;2022-11-25T01:28:44;4.35;;;3.72;;
32533;SDS011;18973;48.580;8.912;2022-11-25T01:31:12;3.88;;;3.67;;
32533;SDS011;18973;48.580;8.912;2022-11-25T01:33:43;5.30;;;4.80;;
32533;SDS011;18973;48.580;8.912;2022-11-25T01:36:11;4.07;;;3.63;;
32533;SDS011;18973;48.580;8.912;2022-11-25T01:38:38;4.45;;;4.05;;
32533;SDS011;18973;48.580;8.912;2022-11-25T01:41:06;5.20;;;4.55;;
32533;SDS011;18973;48.580;8.912;2022-11-25T01:43:33;9.13;;;5.07;;
32533;SDS011;18973;48.580;8.912;2022-11-25T01:48:48;4.15;;;3.78;;
32533;SDS011;18973;48.580;8.912;2022-11-25T01:51:21;4.30;;;4.00;;
32533;SDS011;18973;48.580;8.912;2022-11-25T01:53:52;3.85;;;3.63;;
32533;SDS011;18973;48.580;8.912;2022-11-25T01:56:21;4.13;;;3.83;;
32533;SDS011;18973;48.580;8.912;2022-11-25T01:58:46;4.55;;;3.80;;
32533;SDS011;18973;48.580;8.912;2022-11-25T02:01:14;4.78;;;3.28;;
32533;SDS011;18973;48.580;8.912;2022-11-25T02:03:41;3.20;;;3.05;;
32533;SDS011;18973;48.580;8.912;2022-11-25T02:06:21;4.30;;;3.95;;
32533;SDS011;18973;48.580;8.912;2022-11-25T02:08:52;4.47;;;4.18;;
32533;SDS011;18973;48.580;8.912;2022-11-25T02:11:21;4.15;;;3.85;;
32533;SDS011;18973;48.580;8.912;2022-11-25T02:13:50;4.53;;;4.07;;
32533;SDS011;18973;48.580;8.912;2022-11-25T02:16:17;7.22;;;4.43;;
32533;SDS011;18973;48.580;8.912;2022-11-25T02:18:43;3.53;;;3.33;;
32533;SDS011;18973;48.580;8.912;2022-11-25T02:21:09;4.63;;;4.30;;
32533;SDS011;18973;48.580;8.912;2022-11-25T02:23:39;4.15;;;3.85;;
32533;SDS011;18973;48.580;8.912;2022-11-25T02:26:10;3.42;;;3.20;;
32533;SDS011;18973;48.580;8.912;2022-11-25T02:28:36;4.15;;;3.75;;
32533;SDS011;18973;48.580;8.912;2022-11-25T02:31:03;3.30;;;3.10;;
32533;SDS011;18973;48.580;8.912;2022-11-25T02:33:31;3.55;;;3.35;;
32533;SDS011;18973;48.580;8.912;2022-11-25T02:36:01;4.53;;;3.35;;
32533;SDS011;18973;48.580;8.912;2022-11-25T02:38:36;3.40;;;3.20;;
32533;SDS011;18973;48.580;8.912;2022-11-25T02:43:40;3.42;;;3.15;;
32533;SDS011;18973;48.580;8.912;2022-11-25T02:46:07;3.97;;;3.47;;
32533;SDS011;18973;48.580;8.912;2022-11-25T02:48:35;5.10;;;3.05;;
32533;SDS011;18973;48.580;8.912;2022-11-25T02:51:03;4.32;;;3.67;;
32533;SDS011;18973;48.580;8.912;2022-11-25T02:53:30;3.15;;;2.95;;
32533;SDS011;18973;48.580;8.912;2022-11-25T02:55:55;6.55;;;3.03;;
32533;SDS011;18973;48.580;8.912;2022-11-25T02:58:21;3.60;;;3.30;;
32533;SDS011;18973;48.580;8.912;2022-11-25T03:00:47;4.85;;;3.72;;
32533;SDS011;18973;48.580;8.912;2022-11-25T03:03:13;3.63;;;3.33;;
32533;SDS011;18973;48.580;8.912;2022-11-25T03:05:40;7.47;;;4.85;;
32533;SDS011;18973;48.580;8.912;2022-11-25T03:08:06;3.33;;;3.03;;
32533;SDS011;18973;48.580;8.912;2022-11-25T03:10:32;3.63;;;3.42;;
32533;SDS011;18973;48.580;8.912;2022-11-25T03:12:58;6.55;;;4.97;;
32533;SDS011;18973;48.580;8.912;2022-11-25T03:15:24;3.75;;;3.50;;
32533;SDS011;18973;48.580;8.912;2022-11-25T03:17:50;4.95;;;4.43;;
32533;SDS011;18973;48.580;8.912;2022-11-25T03:20:17;4.03;;;3.67;;
32533;SDS011;18973;48.580;8.912;2022-11-25T03:22:43;5.70;;;4.03;;
32533;SDS011;18973;48.580;8.912;2022-11-25T03:25:09;4.03;;;3.72;;
32533;SDS011;18973;48.580;8.912;2022-11-25T03:27:37;4.97;;;4.28;;
32533;SDS011;18973;48.580;8.912;2022-11-25T03:30:04;5.55;;;3.80;;
32533;SDS011;18973;48.580;8.912;2022-11-25T03:32:32;4.00;;;3.70;;
32533;SDS011;18973;48.580;8.912;2022-11-25T03:34:58;4.18;;;3.80;;
32533;SDS011;18973;48.580;8.912;2022-11-25T03:37:24;3.63;;;3.42;;
32533;SDS011;18973;48.580;8.912;2022-11-25T03:39:50;4.63;;;3.90;;
32533;SDS011;18973;48.580;8.912;2022-11-25T03:42:15;3.63;;;3.20;;
32533;SDS011;18973;48.580;8.912;2022-11-25T03:44:41;5.82;;;3.97;;
32533;SDS011;18973;48.580;8.912;2022-11-25T03:47:07;3.55;;;3.20;;
32533;SDS011;18973;48.580;8.912;2022-11-25T03:49:33;5.68;;;4.00;;
32533;SDS011;18973;48.580;8.912;2022-11-25T03:51:59;4.68;;;4.32;;
32533;SDS011;18973;48.580;8.912;2022-11-25T03:54:25;3.30;;;3.10;;
32533;SDS011;18973;48.580;8.912;2022-11-25T03:56:50;5.25;;;3.95;;
32533;SDS011;18973;48.580;8.912;2022-11-25T03:59:16;3.78;;;3.42;;
32533;SDS011;18973;48.580;8.912;2022-11-25T04:01:42;4.10;;;3.80;;
32533;SDS011;18973;48.580;8.912;2022-11-25T04:04:08;3.67;;;3.40;;
32533;SDS011;18973;48.580;8.912;2022-11-25T04:06:33;4.45;;;4.13;;
32533;SDS011;18973;48.580;8.912;2022-11-25T04:08:59;3.92;;;3.63;;
32533;SDS011;18973;48.580;8.912;2022-11-25T04:11:26;7.22;;;4.68;;
32533;SDS011;18973;48.580;8.912;2022-11-25T04:14:11;5.15;;;4.03;;
32533;SDS011;18973;48.580;8.912;2022-11-25T04:16:38;5.07;;;4.55;;
32533;SDS011;18973;48.580;8.912;2022-11-25T04:19:03;4.72;;;4.30;;
32533;SDS011;18973;48.580;8.912;2022-11-25T04:21:29;6.72;;;4.38;;
32533;SDS011;18973;48.580;8.912;2022-11-25T04:23:56;5.22;;;4.60;;
32533;SDS011;18973;48.580;8.912;2022-11-25T04:26:24;3.92;;;3.63;;
32533;SDS011;18973;48.580;8.912;2022-11-25T04:28:49;4.88;;;3.92;;
32533;SDS011;18973;48.580;8.912;2022-11-25T04:31:15;6.68;;;5.93;;
32533;SDS011;18973;48.580;8.912;2022-11-25T04:33:41;6.03;;;3.70;;
32533;SDS011;18973;48.580;8.912;2022-11-25T04:36:06;3.80;;;3.60;;
32533;SDS011;18973;48.580;8.912;2022-11-25T04:38:32;4.70;;;4.40;;
32533;SDS011;18973;48.580;8.912;2022-11-25T04:40:58;3.50;;;3.30;;
32533;SDS011;18973;48.580;8.912;2022-11-25T04:43:24;4.38;;;3.58;;
32533;SDS011;18973;48.580;8.912;2022-11-25T04:45:49;3.83;;;3.15;;
32533;SDS011;18973;48.580;8.912;2022-11-25T04:48:16;5.38;;;3.33;;
32533;SDS011;18973;48.580;8.912;2022-11-25T04:50:42;4.03;;;3.72;;
32533;SDS011;18973;48.580;8.912;2022-11-25T04:53:08;2.95;;;2.75;;
32533;SDS011;18973;48.580;8.912;2022-11-25T04:55:34;3.55;;;3.25;;
32533;SDS011;18973;48.580;8.912;2022-11-25T04:58:00;5.78;;;3.95;;
32533;SDS011;18973;48.580;8.912;2022-11-25T05:00:25;4.22;;;3.78;;
32533;SDS011;18973;48.580;8.912;2022-11-25T05:02:52;4.60;;;3.72;;
32533;SDS011;18973;48.580;8.912;2022-11-25T05:05:17;4.43;;;4.07;;
32533;SDS011;18973;48.580;8.912;2022-11-25T05:07:43;5.25;;;4.75;;
32533;SDS011;18973;48.580;8.912;2022-11-25T05:10:09;7.05;;;5.57;;
32533;SDS011;18973;48.580;8.912;2022-11-25T05:12:35;8.20;;;5.50;;
32533;SDS011;18973;48.580;8.912;2022-11-25T05:15:01;6.75;;;5.13;;
32533;SDS011;18973;48.580;8.912;2022-11-25T05:17:29;4.47;;;4.10;;
32533;SDS011;18973;48.580;8.912;2022-11-25T05:19:56;5.15;;;4.65;;
32533;SDS011;18973;48.580;8.912;2022-11-25T05:22:26;5.72;;;3.95;;
32533;SDS011;18973;48.580;8.912;2022-11-25T05:24:53;3.58;;;3.38;;
32533;SDS011;18973;48.580;8.912;2022-11-25T05:27:20;5.00;;;4.47;;
32533;SDS011;18973;48.580;8.912;2022-11-25T05:29:46;4.10;;;3.78;;
32533;SDS011;18973;48.580;8.912;2022-11-25T05:32:12;4.55;;;3.67;;
32533;SDS011;18973;48.580;8.912;2022-11-25T05:34:39;4.20;;;3.55;;
32533;SDS011;18973;48.580;8.912;2022-11-25T05:37:05;4.43;;;4.03;;
32533;SDS011;18973;48.580;8.912;2022-11-25T05:39:32;5.80;;;3.92;;
32533;SDS011;18973;48.580;8.912;2022-11-25T05:41:58;4.40;;;4.05;;
32533;SDS011;18973;48.580;8.912;2022-11-25T05:44:23;4.47;;;4.10;;
32533;SDS011;18973;48.580;8.912;2022-11-25T05:46:49;5.65;;;5.05;;
32533;SDS011;18973;48.580;8.912;2022-11-25T05:49:16;5.80;;;4.60;;
32533;SDS011;18973;48.580;8.912;2022-11-25T05:51:42;5.10;;;4.55;;
32533;SDS011;18973;48.580;8.912;2022-11-25T05:54:08;5.15;;;4.50;;
32533;SDS011;18973;48.580;8.912;2022-11-25T05:56:33;6.45;;;3.70;;
32533;SDS011;18973;48.580;8.912;2022-11-25T05:58:59;5.28;;;4.78;;
32533;SDS011;18973;48.580;8.912;2022-11-25T06:01:26;3.72;;;3.47;;
32533;SDS011;18973;48.580;8.912;2022-11-25T06:03:51;6.32;;;3.15;;
32533;SDS011;18973;48.580;8.912;2022-11-25T06:06:17;4.45;;;3.85;;
32533;SDS011;18973;48.580;8.912;2022-11-25T06:08:43;4.05;;;3.75;;
32533;SDS011;18973;48.580;8.912;2022-11-25T06:11:10;5.78;;;3.30;;
32533;SDS011;18973;48.580;8.912;2022-11-25T06:13:38;4.88;;;4.47;;
32533;SDS011;18973;48.580;8.912;2022-11-25T06:16:06;6.10;;;4.72;;
32533;SDS011;18973;48.580;8.912;2022-11-25T06:18:36;8.50;;;6.78;;
32533;SDS011;18973;48.580;8.912;2022-11-25T06:21:02;15.35;;;10.52;;
32533;SDS011;18973;48.580;8.912;2022-11-25T06:23:29;12.68;;;7.32;;
32533;SDS011;18973;48.580;8.912;2022-11-25T06:26:01;5.28;;;4.30;;
32533;SDS011;18973;48.580;8.912;2022-11-25T06:28:46;3.78;;;3.55;;
32533;SDS011;18973;48.580;8.912;2022-11-25T06:31:13;3.78;;;3.47;;
32533;SDS011;18973;48.580;8.912;2022-11-25T06:33:50;8.82;;;7.63;;
32533;SDS011;18973;48.580;8.912;2022-11-25T06:36:18;8.55;;;5.80;;
32533;SDS011;18973;48.580;8.912;2022-11-25T06:38:46;6.90;;;5.38;;
32533;SDS011;18973;48.580;8.912;2022-11-25T06:41:13;21.42;;;9.32;;
32533;SDS011;18973;48.580;8.912;2022-11-25T06:43:39;17.00;;;8.63;;
32533;SDS011;18973;48.580;8.912;2022-11-25T06:46:09;15.02;;;7.55;;
32533;SDS011;18973;48.580;8.912;2022-11-25T06:48:36;13.05;;;7.82;;
32533;SDS011;18973;48.580;8.912;2022-11-25T06:51:03;14.35;;;8.70;;
32533;SDS011;18973;48.580;8.912;2022-11-25T06:53:31;12.32;;;5.88;;
32533;SDS011;18973;48.580;8.912;2022-11-25T06:56:12;10.07;;;6.03;;
32533;SDS011;18973;48.580;8.912;2022-11-25T06:58:41;9.68;;;6.57;;
32533;SDS011;18973;48.580;8.912;2022-11-25T07:01:17;17.48;;;12.10;;
32533;SDS011;18973;48.580;8.912;2022-11-25T07:03:45;7.90;;;6.55;;
32533;SDS011;18973;48.580;8.912;2022-11-25T07:06:13;4.15;;;3.65;;
32533;SDS011;18973;48.580;8.912;2022-11-25T07:08:40;3.20;;;3.00;;
32533;SDS011;18973;48.580;8.912;2022-11-25T07:11:08;3.92;;;3.03;;
32533;SDS011;18973;48.580;8.912;2022-11-25T07:13:37;5.45;;;4.28;;
32533;SDS011;18973;48.580;8.912;2022-11-25T07:16:03;3.45;;;3.15;;
32533;SDS011;18973;48.580;8.912;2022-11-25T07:18:34;3.38;;;3.17;;
32533;SDS011;18973;48.580;8.912;2022-11-25T07:21:05;3.95;;;3.58;;
32533;SDS011;18973;48.580;8.912;2022-11-25T07:23:33;3.78;;;3.47;;
32533;SDS011;18973;48.580;8.912;2022-11-25T07:26:06;3.72;;;3.13;;
32533;SDS011;18973;48.580;8.912;2022-11-25T07:28:35;3.75;;;3.35;;
32533;SDS011;18973;48.580;8.912;2022-11-25T07:31:05;4.05;;;3.72;;
32533;SDS011;18973;48.580;8.912;2022-11-25T07:33:42;11.05;;;4.53;;
32533;SDS011;18973;48.580;8.912;2022-11-25T07:36:09;3.90;;;3.60;;
32533;SDS011;18973;48.580;8.912;2022-11-25T07:38:36;4.10;;;3.78;;
32533;SDS011;18973;48.580;8.912;2022-11-25T07:41:03;8.43;;;3.70;;
32533;SDS011;18973;48.580;8.912;2022-11-25T07:43:30;3.83;;;3.53;;
32533;SDS011;18973;48.580;8.912;2022-11-25T07:45:56;4.32;;;3.50;;
32533;SDS011;18973;48.580;8.912;2022-11-25T07:48:31;4.47;;;4.07;;
32533;SDS011;18973;48.580;8.912;2022-11-25T07:50:57;6.93;;;3.58;;
32533;SDS011;18973;48.580;8.912;2022-11-25T07:53:22;3.67;;;3.45;;
32533;SDS011;18973;48.580;8.912;2022-11-25T07:55:48;3.90;;;3.00;;
32533;SDS011;18973;48.580;8.912;2022-11-25T07:58:14;2.90;;;2.70;;
32533;SDS011;18973;48.580;8.912;2022-11-25T08:00:39;4.25;;;3.88;;
32533;SDS011;18973;48.580;8.912;2022-11-25T08:03:05;4.63;;;3.35;;
32533;SDS011;18973;48.580;8.912;2022-11-25T08:05:31;3.72;;;3.17;;
32533;SDS011;18973;48.580;8.912;2022-11-25T08:08:01;2.92;;;2.70;;
32533;SDS011;18973;48.580;8.912;2022-11-25T08:10:27;2.72;;;2.53;;
32533;SDS011;18973;48.580;8.912;2022-11-25T08:12:53;3.80;;;3.40;;
32533;SDS011;18973;48.580;8.912;2022-11-25T08:15:18;2.55;;;2.38;;
32533;SDS011;18973;48.580;8.912;2022-11-25T08:17:44;3.13;;;2.92;;
32533;SDS011;18973;48.580;8.912;2022-11-25T08:20:10;2.70;;;2.55;;
32533;SDS011;18973;48.580;8.912;2022-11-25T08:22:36;3.97;;;3.22;;
32533;SDS011;18973;48.580;8.912;2022-11-25T08:25:02;4.28;;;3.72;;
32533;SDS011;18973;48.580;8.912;2022-11-25T08:27:27;2.90;;;2.70;;
32533;SDS011;18973;48.580;8.912;2022-11-25T08:29:53;4.22;;;3.92;;
32533;SDS011;18973;48.580;8.912;2022-11-25T08:32:19;2.47;;;2.28;;
32533;SDS011;18973;48.580;8.912;2022-11-25T08:34:44;3.50;;;3.05;;
32533;SDS011;18973;48.580;8.912;2022-11-25T08:37:10;6.78;;;3.67;;
32533;SDS011;18973;48.580;8.912;2022-11-25T08:39:36;2.78;;;2.58;;
32533;SDS011;18973;48.580;8.912;2022-11-25T08:42:02;2.78;;;2.42;;
32533;SDS011;18973;48.580;8.912;2022-11-25T08:44:29;2.78;;;2.55;;
32533;SDS011;18973;48.580;8.912;2022-11-25T08:46:55;3.22;;;2.92;;
32533;SDS011;18973;48.580;8.912;2022-11-25T08:49:20;2.75;;;2.55;;
32533;SDS011;18973;48.580;8.912;2022-11-25T08:51:46;4.43;;;3.08;;
32533;SDS011;18973;48.580;8.912;2022-11-25T08:54:12;2.53;;;2.33;;
32533;SDS011;18973;48.580;8.912;2022-11-25T08:56:38;2.83;;;2.63;;
32533;SDS011;18973;48.580;8.912;2022-11-25T08:59:04;3.08;;;2.78;;
32533;SDS011;18973;48.580;8.912;2022-11-25T09:01:30;2.70;;;2.40;;
32533;SDS011;18973;48.580;8.912;2022-11-25T09:03:56;3.13;;;2.45;;
32533;SDS011;18973;48.580;8.912;2022-11-25T09:06:23;3.03;;;2.78;;
32533;SDS011;18973;48.580;8.912;2022-11-25T09:08:52;2.60;;;2.40;;
32533;SDS011;18973;48.580;8.912;2022-11-25T09:11:19;2.47;;;2.28;;
32533;SDS011;18973;48.580;8.912;2022-11-25T09:13:45;3.60;;;2.72;;
32533;SDS011;18973;48.580;8.912;2022-11-25T09:16:10;2.13;;;2.03;;
32533;SDS011;18973;48.580;8.912;2022-11-25T09:18:36;4.20;;;3.17;;
32533;SDS011;18973;48.580;8.912;2022-11-25T09:21:07;2.88;;;2.67;;
32533;SDS011;18973;48.580;8.912;2022-11-25T09:26:04;2.72;;;2.53;;
32533;SDS011;18973;48.580;8.912;2022-11-25T09:28:31;2.60;;;2.25;;
32533;SDS011;18973;48.580;8.912;2022-11-25T09:31:16;3.55;;;2.85;;
32533;SDS011;18973;48.580;8.912;2022-11-25T09:33:42;17.65;;;8.93;;
32533;SDS011;18973;48.580;8.912;2022-11-25T09:36:08;4.03;;;3.22;;
32533;SDS011;18973;48.580;8.912;2022-11-25T09:38:35;4.50;;;2.60;;
32533;SDS011;18973;48.580;8.912;2022-11-25T09:41:06;2.42;;;2.17;;
32533;SDS011;18973;48.580;8.912;2022-11-25T09:47:14;2.95;;;2.55;;
32533;SDS011;18973;48.580;8.912;2022-11-25T09:55:38;2.95;;;2.75;;
32533;SDS011;18973;48.580;8.912;2022-11-25T09:58:17;2.33;;;2.15;;
32533;SDS011;18973;48.580;8.912;2022-11-25T10:00:48;3.78;;;3.08;;
32533;SDS011;18973;48.580;8.912;2022-11-25T10:06:15;5.03;;;2.85;;
32533;SDS011;18973;48.580;8.912;2022-11-25T10:08:50;3.20;;;2.90;;
32533;SDS011;18973;48.580;8.912;2022-11-25T10:14:20;4.22;;;2.90;;
32533;SDS011;18973;48.580;8.912;2022-11-25T10:19:45;3.60;;;2.33;;
32533;SDS011;18973;48.580;8.912;2022-11-25T10:22:40;4.97;;;3.00;;
32533;SDS011;18973;48.580;8.912;2022-11-25T10:25:51;3.35;;;2.85;;
32533;SDS011;18973;48.580;8.912;2022-11-25T10:31:03;3.03;;;2.40;;
32533;SDS011;18973;48.580;8.912;2022-11-25T10:36:17;8.95;;;5.57;;
32533;SDS011;18973;48.580;8.912;2022-11-25T10:38:54;2.05;;;1.95;;
32533;SDS011;18973;48.580;8.912;2022-11-25T10:41:28;2.50;;;2.30;;
32533;SDS011;18973;48.580;8.912;2022-11-25T10:43:59;2.10;;;1.92;;
32533;SDS011;18973;48.580;8.912;2022-11-25T10:46:43;1.70;;;1.60;;
32533;SDS011;18973;48.580;8.912;2022-11-25T10:52:25;1.98;;;1.88;;
32533;SDS011;18973;48.580;8.912;2022-11-25T10:55:12;2.13;;;1.95;;
32533;SDS011;18973;48.580;8.912;2022-11-25T10:57:40;1.70;;;1.60;;
32533;SDS011;18973;48.580;8.912;2022-11-25T11:00:10;6.18;;;1.80;;
32533;SDS011;18973;48.580;8.912;2022-11-25T11:02:54;2.45;;;2.25;;
32533;SDS011;18973;48.580;8.912;2022-11-25T11:05:22;2.60;;;2.00;;
32533;SDS011;18973;48.580;8.912;2022-11-25T11:08:07;2.35;;;1.98;;
32533;SDS011;18973;48.580;8.912;2022-11-25T11:10:41;2.58;;;2.38;;
32533;SDS011;18973;48.580;8.912;2022-11-25T11:15:45;16.60;;;6.00;;
32533;SDS011;18973;48.580;8.912;2022-11-25T11:21:02;2.88;;;2.00;;
32533;SDS011;18973;48.580;8.912;2022-11-25T11:23:30;7.60;;;3.85;;
32533;SDS011;18973;48.580;8.912;2022-11-25T11:26:25;2.22;;;2.00;;
32533;SDS011;18973;48.580;8.912;2022-11-25T11:29:01;2.08;;;1.92;;
32533;SDS011;18973;48.580;8.912;2022-11-25T11:31:38;1.23;;;1.23;;
32533;SDS011;18973;48.580;8.912;2022-11-25T11:34:17;3.13;;;1.70;;
32533;SDS011;18973;48.580;8.912;2022-11-25T11:37:08;2.13;;;1.85;;
32533;SDS011;18973;48.580;8.912;2022-11-25T11:39:49;1.60;;;1.50;;
32533;SDS011;18973;48.580;8.912;2022-11-25T11:43:02;7.80;;;3.67;;
32533;SDS011;18973;48.580;8.912;2022-11-25T11:51:47;2.53;;;2.20;;
32533;SDS011;18973;48.580;8.912;2022-11-25T11:54:34;1.73;;;1.52;;
32533;SDS011;18973;48.580;8.912;2022-11-25T11:59:58;2.38;;;2.13;;
32533;SDS011;18973;48.580;8.912;2022-11-25T12:05:28;4.10;;;2.28;;
32533;SDS011;18973;48.580;8.912;2022-11-25T12:08:03;1.23;;;1.23;;
32533;SDS011;18973;48.580;8.912;2022-11-25T12:10:52;2.20;;;1.45;;
32533;SDS011;18973;48.580;8.912;2022-11-25T12:13:34;1.83;;;1.65;;
32533;SDS011;18973;48.580;8.912;2022-11-25T12:16:09;3.60;;;1.85;;
32533;SDS011;18973;48.580;8.912;2022-11-25T12:21:35;2.30;;;1.58;;
32533;SDS011;18973;48.580;8.912;2022-11-25T12:29:21;1.40;;;1.27;;
32533;SDS011;18973;48.580;8.912;2022-11-25T12:37:36;3.08;;;1.40;;
32533;SDS011;18973;48.580;8.912;2022-11-25T12:40:16;1.88;;;1.67;;
32533;SDS011;18973;48.580;8.912;2022-11-25T12:42:48;4.00;;;1.90;;
32533;SDS011;18973;48.580;8.912;2022-11-25T12:45:21;2.55;;;1.58;;
32533;SDS011;18973;48.580;8.912;2022-11-25T12:47:50;1.27;;;1.17;;
32533;SDS011;18973;48.580;8.912;2022-11-25T12:50:30;1.35;;;1.25;;
32533;SDS011;18973;48.580;8.912;2022-11-25T12:55:44;1.20;;;1.10;;
32533;SDS011;18973;48.580;8.912;2022-11-25T13:01:32;2.20;;;2.00;;
32533;SDS011;18973;48.580;8.912;2022-11-25T13:15:43;0.70;;;0.70;;
32533;SDS011;18973;48.580;8.912;2022-11-25T13:18:18;0.80;;;0.80;;
32533;SDS011;18973;48.580;8.912;2022-11-25T13:20:48;0.70;;;0.70;;
32533;SDS011;18973;48.580;8.912;2022-11-25T13:25:42;0.82;;;0.82;;
32533;SDS011;18973;48.580;8.912;2022-11-25T13:31:17;0.93;;;0.93;;
32533;SDS011;18973;48.580;8.912;2022-11-25T13:36:15;0.60;;;0.60;;
32533;SDS011;18973;48.580;8.912;2022-11-25T13:43:59;0.68;;;0.68;;
32533;SDS011;18973;48.580;8.912;2022-11-25T13:49:26;0.80;;;0.80;;
32533;SDS011;18973;48.580;8.912;2022-11-25T13:51:57;0.80;;;0.80;;
32533;SDS011;18973;48.580;8.912;2022-11-25T13:54:42;1.03;;;1.03;;
32533;SDS011;18973;48.580;8.912;2022-11-25T13:59:54;1.10;;;0.93;;
32533;SDS011;18973;48.580;8.912;2022-11-25T14:04:56;0.98;;;0.98;;
32533;SDS011;18973;48.580;8.912;2022-11-25T14:07:38;2.13;;;1.17;;
32533;SDS011;18973;48.580;8.912;2022-11-25T14:10:40;6.55;;;3.15;;
32533;SDS011;18973;48.580;8.912;2022-11-25T14:16:35;2.33;;;1.65;;
32533;SDS011;18973;48.580;8.912;2022-11-25T14:22:00;1.02;;;0.73;;
32533;SDS011;18973;48.580;8.912;2022-11-25T14:29:50;8.85;;;3.85;;
32533;SDS011;18973;48.580;8.912;2022-11-25T14:32:20;3.63;;;3.15;;
32533;SDS011;18973;48.580;8.912;2022-11-25T14:35:04;4.43;;;2.20;;
32533;SDS011;18973;48.580;8.912;2022-11-25T14:37:38;3.67;;;1.83;;
32533;SDS011;18973;48.580;8.912;2022-11-25T14:40:17;5.03;;;2.65;;
32533;SDS011;18973;48.580;8.912;2022-11-25T14:43:01;1.73;;;1.33;;
32533;SDS011;18973;48.580;8.912;2022-11-25T14:45:33;11.73;;;3.90;;
32533;SDS011;18973;48.580;8.912;2022-11-25T14:50:37;8.65;;;4.32;;
32533;SDS011;18973;48.580;8.912;2022-11-25T14:53:04;9.70;;;4.35;;
32533;SDS011;18973;48.580;8.912;2022-11-25T14:55:31;21.25;;;9.32;;
32533;SDS011;18973;48.580;8.912;2022-11-25T14:57:57;5.97;;;2.53;;
32533;SDS011;18973;48.580;8.912;2022-11-25T15:00:23;6.97;;;3.97;;
32533;SDS011;18973;48.580;8.912;2022-11-25T15:02:53;9.40;;;5.25;;
32533;SDS011;18973;48.580;8.912;2022-11-25T15:05:24;12.45;;;6.47;;
32533;SDS011;18973;48.580;8.912;2022-11-25T15:07:58;17.38;;;8.50;;
32533;SDS011;18973;48.580;8.912;2022-11-25T15:14:04;14.32;;;4.28;;
32533;SDS011;18973;48.580;8.912;2022-11-25T15:16:19;11.00;;;6.20;;
32533;SDS011;18973;48.580;8.912;2022-11-25T15:18:51;12.60;;;4.93;;
32533;SDS011;18973;48.580;8.912;2022-11-25T15:21:35;3.42;;;1.88;;
32533;SDS011;18973;48.580;8.912;2022-11-25T15:24:03;1.67;;;1.40;;
32533;SDS011;18973;48.580;8.912;2022-11-25T15:26:33;2.65;;;2.20;;
32533;SDS011;18973;48.580;8.912;2022-11-25T15:29:10;2.85;;;2.35;;
32533;SDS011;18973;48.580;8.912;2022-11-25T15:31:37;6.25;;;1.88;;
32533;SDS011;18973;48.580;8.912;2022-11-25T15:34:06;7.75;;;3.17;;
32533;SDS011;18973;48.580;8.912;2022-11-25T15:36:35;4.72;;;2.17;;
32533;SDS011;18973;48.580;8.912;2022-11-25T15:39:34;4.35;;;2.50;;
32533;SDS011;18973;48.580;8.912;2022-11-25T15:42:10;2.80;;;1.80;;
32533;SDS011;18973;48.580;8.912;2022-11-25T15:47:22;1.35;;;1.25;;
32533;SDS011;18973;48.580;8.912;2022-11-25T15:50:03;0.95;;;0.95;;
32533;SDS011;18973;48.580;8.912;2022-11-25T15:52:39;3.53;;;2.53;;
32533;SDS011;18973;48.580;8.912;2022-11-25T15:57:57;3.80;;;2.67;;
32533;SDS011;18973;48.580;8.912;2022-11-25T16:00:30;9.32;;;6.80;;
32533;SDS011;18973;48.580;8.912;2022-11-25T16:02:56;2.33;;;1.98;;
32533;SDS011;18973;48.580;8.912;2022-11-25T16:05:33;1.10;;;1.00;;
32533;SDS011;18973;48.580;8.912;2022-11-25T16:08:19;1.58;;;1.10;;
32533;SDS011;18973;48.580;8.912;2022-11-25T16:11:08;0.90;;;0.90;;
32533;SDS011;18973;48.580;8.912;2022-11-25T16:13:37;1.52;;;1.42;;
32533;SDS011;18973;48.580;8.912;2022-11-25T16:18:34;3.83;;;3.25;;
32533;SDS011;18973;48.580;8.912;2022-11-25T16:21:20;2.17;;;1.50;;
32533;SDS011;18973;48.580;8.912;2022-11-25T16:23:52;2.90;;;2.13;;
32533;SDS011;18973;48.580;8.912;2022-11-25T16:28:58;20.05;;;8.70;;
32533;SDS011;18973;48.580;8.912;2022-11-25T16:31:25;13.10;;;8.57;;
32533;SDS011;18973;48.580;8.912;2022-11-25T16:33:56;143.60;;;65.55;;
32533;SDS011;18973;48.580;8.912;2022-11-25T16:36:35;131.70;;;48.97;;
32533;SDS011;18973;48.580;8.912;2022-11-25T16:39:01;75.97;;;33.13;;
32533;SDS011;18973;48.580;8.912;2022-11-25T16:41:27;21.63;;;11.77;;
32533;SDS011;18973;48.580;8.912;2022-11-25T16:43:52;16.02;;;8.85;;
32533;SDS011;18973;48.580;8.912;2022-11-25T16:46:18;10.27;;;5.65;;
32533;SDS011;18973;48.580;8.912;2022-11-25T16:48:44;8.20;;;5.38;;
32533;SDS011;18973;48.580;8.912;2022-11-25T16:51:14;5.32;;;3.72;;
32533;SDS011;18973;48.580;8.912;2022-11-25T16:53:42;2.53;;;1.98;;
32533;SDS011;18973;48.580;8.912;2022-11-25T16:56:15;7.68;;;2.35;;
32533;SDS011;18973;48.580;8.912;2022-11-25T16:58:45;50.17;;;17.35;;
32533;SDS011;18973;48.580;8.912;2022-11-25T17:01:12;16.30;;;9.48;;
32533;SDS011;18973;48.580;8.912;2022-11-25T17:03:40;13.65;;;6.70;;
32533;SDS011;18973;48.580;8.912;2022-11-25T17:06:16;6.57;;;4.68;;
32533;SDS011;18973;48.580;8.912;2022-11-25T17:08:44;7.18;;;3.63;;
32533;SDS011;18973;48.580;8.912;2022-11-25T17:11:12;5.00;;;2.10;;
32533;SDS011;18973;48.580;8.912;2022-11-25T17:14:16;2.03;;;1.85;;